Latest Weather Observations for Nowra

IDN60801

Issued at 9:22 pm EDT Thursday 21 November 2019 (issued every 10 minutes, with the page automatically refreshed every 10 minutes)

About weather observations | Map of weather stations | Latest weather observations for NSW | Other Formats
Station Details ID: 068072 Name: NOWRA RAN AIR STATION AWS Lat: -34.95 Lon: 150.54 Height: 109.0 m
Data from the previous 72 hours. | See also: Recent months at Nowra
Date/Time
EDT
Temp
°C
App
Temp
°C
Dew
Point
°C
Rel
Hum
%
Delta-T
°C
Wind Press
QNH
hPa
Press
MSL
hPa
Rain since
9am
mm
Dir  Spd
km/h
Gust
km/h
Spd
kts
Gust
kts
21/09:00pm 20.3 21.8 18.1 87 1.4 SW 7 9 4 5 1007.9 1007.6 0.0
21/08:30pm 21.2 22.6 18.6 85 1.6 S 9 15 5 8 1007.8 1007.5 0.0
21/08:00pm 22.2 23.3 18.0 77 2.6 SE 9 13 5 7 1007.5 1007.2 0.0
21/07:30pm 23.3 24.3 17.7 71 3.5 SSE 9 13 5 7 1007.4 1007.1 0.0
21/07:00pm 24.6 25.2 17.6 65 4.4 SE 11 13 6 7 1007.0 1006.7 0.0
21/06:30pm 26.1 26.4 18.0 61 5.1 ESE 13 19 7 10 1006.8 1006.5 0.0
21/06:00pm 26.5 26.3 17.6 58 5.6 SE 15 20 8 11 1006.7 1006.4 0.0
21/05:30pm 28.0 27.8 17.5 52 6.6 ESE 15 20 8 11 1006.7 1006.4 0.0
21/05:00pm 28.7 27.9 17.9 52 6.9 ESE 19 24 10 13 1006.8 1006.5 0.0
21/04:30pm 28.8 28.5 18.3 53 6.7 ESE 17 24 9 13 1007.2 1006.9 0.0
21/04:00pm 28.2 26.2 17.4 52 6.8 ESE 24 30 13 16 1007.5 1007.2 0.0
21/03:30pm 28.4 27.1 17.3 51 7.0 E 20 28 11 15 1008.1 1007.8 0.0
21/03:00pm 29.4 27.2 15.9 44 8.4 ESE 22 28 12 15 1008.4 1008.1 0.0
21/02:30pm 30.9 29.1 16.9 43 8.9 ESE 22 28 12 15 1009.0 1008.7 0.0
21/02:00pm 31.4 29.3 16.2 40 9.6 ESE 22 26 12 14 1009.3 1009.0 0.0
21/01:30pm 32.1 30.7 15.6 37 10.3 E 17 24 9 13 1009.6 1009.3 0.0
21/01:00pm 33.2 31.5 14.8 33 11.4 ENE 17 22 9 12 1010.0 1009.7 0.0
21/12:30pm 31.7 29.2 13.5 33 11.0 E 19 26 10 14 1010.5 1010.2 0.0
21/12:00pm 31.9 30.1 13.2 32 11.3 NE 15 20 8 11 1010.9 1010.6 0.0
21/11:30am 31.7 28.9 8.7 24 12.9 NE 13 20 7 11 1011.4 1011.1 0.0
21/11:00am 30.6 28.4 9.5 27 11.9 NE 11 17 6 9 1011.9 1011.7 0.0
21/10:30am 29.8 27.4 8.8 27 11.7 NNE 11 17 6 9 1012.3 1012.1 0.0
21/10:00am 28.0 25.5 8.3 29 10.8 N 11 17 6 9 1012.8 1012.5 0.0
21/09:30am 26.1 24.2 9.0 34 9.4 N 9 17 5 9 1013.2 1012.9 0.0
21/09:00am 24.9 22.7 9.2 37 8.6 N 11 19 6 10 1013.7 1013.4 0.0
21/08:30am 22.9 21.3 10.3 45 6.9 NNW 9 13 5 7 1014.1 1013.8 0.0
21/08:00am 21.2 19.4 11.0 52 5.6 NW 11 15 6 8 1014.2 1013.9 0.0
21/07:30am 19.2 17.7 12.0 63 4.0 NNW 11 15 6 8 1014.2 1013.9 0.0
21/07:00am 17.7 16.4 12.4 71 2.9 NNW 11 15 6 8 1014.4 1014.1 0.0
21/06:30am 15.8 14.6 12.7 82 1.7 NNW 11 15 6 8 1014.4 1014.1 0.0
21/06:00am 13.5 12.6 12.6 94 0.5 NNW 9 11 5 6 1014.3 1014.0 0.0
21/05:30am 12.9 11.9 11.1 89 1.0 NNW 7 11 4 6 1014.1 1013.8 0.0
21/05:00am 14.5 13.2 12.5 88 1.1 NW 11 15 6 8 1014.2 1013.9 0.0
21/04:30am 13.9 12.9 12.3 90 0.9 WNW 9 11 5 6 1014.3 1014.0 0.0
21/04:00am 14.3 12.6 12.3 88 1.1 WNW 13 15 7 8 1014.5 1014.2 0.0
21/03:30am 14.3 12.5 13.2 93 0.6 WNW 15 17 8 9 1014.8 1014.5 0.0
21/03:00am 13.1 12.1 12.3 95 0.4 NW 9 11 5 6 1014.9 1014.6 0.0
21/02:30am 13.8 12.8 13.5 98 0.2 NW 11 11 6 6 1015.4 1015.1 0.0
21/02:00am 11.9 12.0 11.4 97 0.3 WNW 2 11 1 6 1015.9 1015.6 0.0
21/01:30am 12.7 13.4 12.1 96 0.3 CALM 0 0 0 0 1016.3 1016.0 0.0
21/01:00am 12.9 13.5 12.0 94 0.5 CALM 0 0 0 0 1016.6 1016.3 0.0
21/12:30am 14.0 14.1 12.7 92 0.7 NW 4 6 2 3 1017.0 1016.7 0.0
21/12:00am 13.6 12.8 11.7 88 1.0 NW 7 9 4 5 1017.2 1016.9 0.0
 
Date/Time
EDT
Temp
°C
App
Temp
°C
Dew
Point
°C
Rel
Hum
%
Delta-T
°C
Wind Press
QNH
hPa
Press
MSL
hPa
Rain since
9am
mm
Dir  Spd
km/h
Gust
km/h
Spd
kts
Gust
kts
20/11:30pm 14.0 13.5 11.9 87 1.1 NW 6 7 3 4 1017.3 1017.0 0.0
20/11:00pm 15.4 14.8 13.6 89 1.0 WNW 9 11 5 6 1017.4 1017.1 0.0
20/10:30pm 16.2 15.7 13.7 85 1.4 N 9 11 5 6 1017.5 1017.2 0.0
20/10:00pm 16.0 15.3 13.1 83 1.6 NE 9 11 5 6 1017.7 1017.4 0.0
20/09:30pm 16.7 16.0 13.2 80 2.0 NNE 9 13 5 7 1017.8 1017.5 0.0
20/09:00pm 17.2 16.2 13.3 78 2.2 ENE 11 17 6 9 1017.5 1017.2 0.0
20/08:30pm 17.3 16.1 12.8 75 2.5 NE 11 15 6 8 1017.3 1017.0 0.0
20/08:00pm 17.9 15.9 12.8 72 2.9 ENE 15 20 8 11 1017.2 1016.9 0.0
20/07:30pm 18.5 16.1 12.7 69 3.3 ENE 17 22 9 12 1016.9 1016.6 0.0
20/07:00pm 18.9 16.1 12.6 67 3.5 ENE 19 24 10 13 1016.5 1016.2 0.0
20/06:30pm 19.4 16.5 12.4 64 3.9 ENE 19 24 10 13 1016.0 1015.7 0.0
20/06:00pm 20.1 17.3 12.6 62 4.2 ENE 19 24 10 13 1015.9 1015.6 0.0
20/05:30pm 20.8 17.0 12.5 59 4.7 NE 24 30 13 16 1015.8 1015.5 0.0
20/05:00pm 21.4 18.1 12.8 58 4.9 ENE 22 30 12 16 1015.6 1015.3 0.0
20/04:30pm 22.1 19.1 12.4 54 5.5 ENE 20 28 11 15 1015.4 1015.1 0.0
20/04:00pm 22.7 19.9 12.6 53 5.8 ENE 19 28 10 15 1015.6 1015.3 0.0
20/03:30pm 22.7 20.2 12.3 52 5.9 ENE 17 28 9 15 1015.7 1015.4 0.0
20/03:00pm 23.2 21.1 12.5 51 6.1 E 15 26 8 14 1015.7 1015.4 0.0
20/02:30pm 23.3 21.0 12.9 52 6.0 ESE 17 26 9 14 1015.8 1015.5 0.0
20/02:00pm 22.2 19.8 12.5 54 5.5 ESE 17 26 9 14 1016.1 1015.8 0.0
20/01:30pm 21.8 19.6 12.1 54 5.5 E 15 26 8 14 1016.4 1016.1 0.0
20/01:00pm 21.4 19.2 13.3 60 4.7 SE 17 22 9 12 1016.8 1016.5 0.0
20/12:30pm 21.5 19.9 13.9 62 4.4 ESE 15 24 8 13 1016.9 1016.6 0.0
20/12:00pm 20.4 19.2 14.1 67 3.7 ESE 13 20 7 11 1017.4 1017.1 0.0
20/11:30am 19.3 18.9 14.1 72 3.0 E 9 13 5 7 1017.7 1017.4 0.0
20/11:00am 18.6 17.9 13.2 71 3.1 NE 9 17 5 9 1017.8 1017.5 0.0
20/10:30am 18.6 17.8 13.0 70 3.2 NNE 9 15 5 8 1017.9 1017.6 0.0
20/10:00am 18.4 17.4 12.4 68 3.3 ENE 9 17 5 9 1017.9 1017.6 0.0
20/09:30am 19.0 18.9 12.0 64 3.9 ESE 4 15 2 8 1018.1 1017.8 0.0
20/09:00am 18.9 17.6 12.4 66 3.6 E 11 15 6 8 1018.0 1017.7 0.0
20/08:30am 17.7 16.6 11.9 69 3.2 SSE 9 13 5 7 1018.1 1017.8 0.0
20/08:00am 17.5 16.5 12.2 71 2.9 S 9 11 5 6 1018.0 1017.7 0.0
20/07:30am 16.9 15.9 12.4 75 2.5 SSW 9 13 5 7 1017.7 1017.4 0.0
20/07:00am 16.3 15.2 12.1 76 2.3 SSW 9 9 5 5 1017.4 1017.1 0.0
20/06:30am 15.8 15.2 12.4 80 1.9 SW 7 9 4 5 1017.1 1016.8 0.0
20/06:00am 15.3 14.7 12.2 82 1.7 SW 7 11 4 6 1016.8 1016.5 0.0
20/05:30am 14.8 13.7 11.9 83 1.6 SW 9 9 5 5 1016.5 1016.2 0.0
20/05:00am 14.9 14.2 12.0 83 1.6 WSW 7 9 4 5 1016.2 1015.9 0.0
20/04:30am 14.8 14.1 11.9 83 1.6 WSW 7 9 4 5 1016.0 1015.7 0.0
20/04:00am 14.8 14.1 11.9 83 1.6 W 7 11 4 6 1015.8 1015.5 0.0
20/03:30am 14.6 13.9 11.9 84 1.5 W 7 9 4 5 1015.8 1015.5 0.0
20/03:00am 14.5 13.5 12.2 86 1.3 W 9 11 5 6 1015.9 1015.6 0.0
20/02:30am 14.3 13.7 12.2 87 1.1 WSW 7 9 4 5 1016.1 1015.8 0.0
20/02:00am 14.2 13.2 12.4 89 1.0 SW 9 11 5 6 1016.3 1016.0 0.0
20/01:30am 13.2 11.8 12.1 93 0.6 SW 11 13 6 7 1016.4 1016.1 0.0
20/01:00am 13.4 11.6 12.1 92 0.7 SW 13 13 7 7 1016.7 1016.4 0.0
20/12:30am 13.9 12.2 12.6 92 0.7 SSW 13 15 7 8 1016.9 1016.6 0.0
20/12:00am 13.8 12.5 12.4 91 0.8 SW 11 13 6 7 1016.9 1016.6 0.0
 
Date/Time
EDT
Temp
°C
App
Temp
°C
Dew
Point
°C
Rel
Hum
%
Delta-T
°C
Wind Press
QNH
hPa
Press
MSL
hPa
Rain since
9am
mm
Dir  Spd
km/h
Gust
km/h
Spd
kts
Gust
kts
19/11:30pm 14.1 13.0 12.1 88 1.1 SW 9 11 5 6 1016.7 1016.4 0.0
19/11:00pm 14.8 13.9 12.7 87 1.2 SSW 9 11 5 6 1016.6 1016.3 0.0
19/10:30pm 15.5 14.8 13.2 86 1.3 SW 9 11 5 6 1016.6 1016.3 0.0
19/10:00pm 16.3 15.3 13.4 83 1.6 S 11 15 6 8 1016.4 1016.1 0.0
19/09:30pm 16.9 15.1 13.4 80 2.0 S 15 20 8 11 1016.3 1016.0 0.0
19/09:00pm 17.5 14.8 13.4 77 2.3 S 20 30 11 16 1015.8 1015.5 0.0
19/08:30pm 17.9 15.6 14.2 79 2.1 S 19 26 10 14 1015.1 1014.8 0.0
19/08:00pm 18.0 15.5 14.1 78 2.2 SSE 20 30 11 16 1014.6 1014.3 0.0
19/07:30pm 18.4 16.5 14.1 76 2.5 SSE 17 26 9 14 1013.8 1013.5 0.0
19/07:19pm 18.6 15.4 14.3 76 2.5 SSE 24 33 13 18 1013.4 1013.1 0.0
19/07:00pm 18.7 15.9 14.4 76 2.5 S 22 32 12 17 1013.0 1012.7 0.0
19/06:56pm 18.7 15.5 14.2 75 2.6 SSE 24 33 13 18 1013.0 1012.7 0.0
19/06:30pm 19.2 15.2 14.0 72 3.0 SSE 28 39 15 21 1012.3 1012.1 0.0
19/06:00pm 20.5 16.5 14.2 67 3.7 SSE 28 41 15 22 1011.7 1011.4 0.0
19/05:30pm 20.3 14.5 14.0 67 3.7 SE 37 48 20 26 1011.0 1010.7 0.0
19/05:00pm 21.9 16.8 14.8 64 4.2 SSE 35 48 19 26 1010.3 1010.0 0.0
19/04:30pm 22.7 18.1 14.5 60 4.9 SSE 32 41 17 22 1009.8 1009.5 0.0
19/04:00pm 23.0 17.3 15.1 61 4.7 SSE 39 56 21 30 1008.9 1008.6 0.0
19/03:58pm 22.8 17.4 15.1 62 4.6 SSE 37 56 20 30 1008.8 1008.5 0.0
19/03:48pm 23.5 17.4 15.3 60 4.9 S 41 56 22 30 1008.6 1008.3 0.0
19/03:43pm 23.8 17.6 15.8 61 4.9 S 43 56 23 30 1008.2 1007.9 0.0
19/03:30pm 25.3 19.7 15.6 55 5.9 SSE 39 50 21 27 1007.9 1007.6 0.0
19/03:26pm 25.1 19.0 15.1 53 6.0 SSE 41 52 22 28 1007.8 1007.5 0.0
19/03:00pm 30.1 24.2 10.6 30 11.2 SSE 32 43 17 23 1006.9 1006.6 0.0
19/02:34pm 35.5 26.8 -3.8 8 18.4 W 33 52 18 28 1006.7 1006.4 0.0
19/02:30pm 35.3 26.0 -5.7 7 18.6 W 35 52 19 28 1006.9 1006.6 0.0
19/02:28pm 35.6 26.3 -5.5 7 18.7 W 35 52 19 28 1006.8 1006.5 0.0
19/02:02pm 35.8 27.8 -5.3 7 18.8 WSW 28 46 15 25 1007.0 1006.7 0.0
19/02:00pm 35.7 27.9 -7.4 6 19.1 WSW 26 46 14 25 1007.1 1006.8 0.0
19/01:54pm 35.7 27.7 -5.4 7 18.8 WSW 28 46 15 25 1007.2 1006.9 0.0
19/01:30pm 34.9 27.1 -4.2 8 18.1 W 28 52 15 28 1007.5 1007.2 0.0
19/01:05pm 35.3 26.9 -5.7 7 18.6 W 30 52 16 28 1007.7 1007.4 0.0
19/01:00pm 34.6 26.7 -4.4 8 18.0 W 28 41 15 22 1007.8 1007.5 0.0
19/12:30pm 33.8 25.7 -3.5 9 17.3 WNW 30 48 16 26 1008.4 1008.1 0.0
19/12:23pm 33.9 25.8 -3.4 9 17.4 WNW 30 48 16 26 1008.7 1008.4 0.0
19/12:18pm 34.3 25.1 -1.7 10 17.3 WNW 37 50 20 27 1008.8 1008.5 0.0
19/12:00pm 33.9 25.4 -3.4 9 17.4 WSW 32 54 17 29 1009.0 1008.7 0.0
19/11:30am 32.8 24.0 -4.2 9 16.9 WNW 33 52 18 28 1009.4 1009.1 0.0
19/11:01am 32.2 24.5 -3.2 10 16.3 W 28 52 15 28 1009.7 1009.4 0.0
19/11:00am 32.1 24.9 -2.0 11 16.1 W 26 46 14 25 1009.7 1009.4 0.0
19/10:54am 32.4 24.7 -3.1 10 16.4 W 28 46 15 25 1009.7 1009.4 0.0
19/10:32am 32.1 23.6 -2.0 11 16.0 W 33 50 18 27 1009.9 1009.6 0.0
19/10:30am 31.7 23.3 -2.3 11 15.9 W 32 50 17 27 1009.9 1009.6 0.0
19/10:00am 31.4 22.6 -1.4 12 15.5 WNW 35 54 19 29 1010.2 1009.9 0.0
19/09:53am 30.7 22.2 -1.9 12 15.2 W 33 54 18 29 1010.2 1009.9 0.0
19/09:30am 30.9 22.4 -1.8 12 15.3 W 33 46 18 25 1010.4 1010.1 0.0
19/09:00am 29.3 21.9 -0.9 14 14.2 WNW 28 41 15 22 1010.8 1010.5 0.0
19/08:30am 28.0 20.5 1.5 18 12.9 WNW 30 41 16 22 1010.8 1010.5 0.0
19/08:00am 26.7 20.1 1.9 20 12.0 WNW 26 35 14 19 1010.8 1010.5 0.0
19/07:30am 25.5 19.2 1.6 21 11.4 WNW 24 33 13 18 1010.7 1010.4 0.0
19/07:00am 24.2 18.3 1.8 23 10.7 WNW 22 32 12 17 1010.6 1010.3 0.0
19/06:30am 21.3 16.8 2.1 28 9.0 NNW 15 20 8 11 1010.6 1010.3 0.0
19/06:00am 20.5 16.7 1.9 29 8.6 NNW 11 15 6 8 1010.5 1010.2 0.0
19/05:30am 19.9 16.4 1.4 29 8.4 NNW 9 15 5 8 1010.3 1010.0 0.0
19/05:00am 21.4 17.1 1.1 26 9.3 NW 13 17 7 9 1010.1 1009.8 0.0
19/04:30am 22.2 17.2 1.3 25 9.7 NW 17 24 9 13 1009.9 1009.6 0.0
19/04:00am 21.8 17.5 0.9 25 9.6 NW 13 17 7 9 1009.9 1009.6 0.0
19/03:30am 22.0 17.3 1.1 25 9.6 WNW 15 20 8 11 1009.9 1009.6 0.0
19/03:00am 21.4 17.1 1.1 26 9.3 NW 13 17 7 9 1010.0 1009.7 0.0
19/02:30am 22.1 18.1 0.6 24 9.8 NW 11 19 6 10 1010.2 1009.9 0.0
19/02:00am 21.7 17.8 1.4 26 9.4 NW 11 17 6 9 1010.4 1010.1 0.0
19/01:30am 19.5 16.5 1.9 31 8.1 NW 7 13 4 7 1010.5 1010.2 0.0
19/01:00am 20.4 17.4 2.3 30 8.4 NW 7 13 4 7 1011.0 1010.7 0.0
19/12:30am 20.9 18.8 1.7 28 8.9 NNE 2 11 1 6 1011.5 1011.2 0.0
19/12:00am 22.8 19.6 0.6 23 10.2 SW 7 15 4 8 1011.6 1011.3 0.0
 
Date/Time
EDT
Temp
°C
App
Temp
°C
Dew
Point
°C
Rel
Hum
%
Delta-T
°C
Wind Press
QNH
hPa
Press
MSL
hPa
Rain since
9am
mm
Dir  Spd
km/h
Gust
km/h
Spd
kts
Gust
kts
18/11:30pm 23.9 18.4 0.3 21 10.9 W 19 32 10 17 1011.5 1011.2 0.0
18/11:00pm 24.0 18.5 0.4 21 10.9 WNW 19 24 10 13 1011.4 1011.1 0.0
18/10:30pm 24.7 19.0 0.3 20 11.3 WNW 20 30 11 16 1011.5 1011.2 0.0
18/10:00pm 25.1 19.3 -0.1 19 11.6 WNW 20 33 11 18 1011.3 1011.0 0.0
18/09:30pm 24.8 19.3 0.3 20 11.4 NW 19 30 10 16 1011.2 1010.9 0.0

Other formats

Comma delimited format used in spreadsheet applications
http://www.bom.gov.au/fwo/IDN60801/IDN60801.94750.axf

JavaScript Object Notation format (JSON) in row-major order
http://www.bom.gov.au/fwo/IDN60801/IDN60801.94750.json

Data quality

Most of these data are generated automatically and are frequently updated. Quality checks on data are not normally performed. It is possible for incorrect values to appear. Refer to information at About Latest Weather Observations and please check the disclaimer before using these data.